Time;durP1;ratioP1;P1;durP2;ratioP2;P2;SDS_P1;SDS_P2;PMS_P1;PMS_P2;Temp;Humidity;BMP_temperature;BMP_pressure;BME280_temperature;BME280_humidity;BME280_pressure;Samples;Min_cycle;Max_cycle;Signal;HPM_P1;HPM_P2
2022/12/29 00:00:15;;;;;;;8.60;7.90;;;8.40;99.90;;;;;;5053324;28;20234;-48
2022/12/29 00:02:43;;;;;;;8.87;8.07;;;8.40;99.90;;;;;;5053163;28;20231;-51
2022/12/29 00:05:13;;;;;;;9.90;8.90;;;8.40;99.90;;;;;;5053207;28;20219;-49
2022/12/29 00:07:41;;;;;;;9.17;8.47;;;8.40;99.90;;;;;;5052815;28;20236;-50
2022/12/29 00:10:09;;;;;;;9.53;8.60;;;8.50;99.90;;;;;;5053515;28;20691;-50
2022/12/29 00:15:37;;;;;;;9.77;8.97;;;8.50;99.90;;;;;;5053038;28;20224;-51
2022/12/29 00:18:06;;;;;;;10.37;9.47;;;8.50;99.90;;;;;;5053065;28;20262;-52
2022/12/29 00:44:04;;;;;;;10.00;9.10;;;8.70;99.90;;;;;;5051923;28;20595;-51
2022/12/29 00:45:44;;;;;;;10.47;9.50;;;8.60;99.90;;;;;;5052406;28;20298;-50
2022/12/29 00:48:12;;;;;;;10.67;9.77;;;8.60;99.90;;;;;;5051333;28;20215;-50
2022/12/29 00:50:40;;;;;;;10.27;9.27;;;8.60;99.90;;;;;;5052742;28;20282;-50
2022/12/29 00:53:09;;;;;;;10.50;9.47;;;8.60;99.90;;;;;;5052946;28;20235;-49
2022/12/29 00:55:38;;;;;;;9.97;9.03;;;8.60;99.90;;;;;;5052704;28;20220;-50
2022/12/29 00:58:06;;;;;;;10.70;9.70;;;8.70;99.90;;;;;;5049480;28;20224;-50
2022/12/29 01:00:34;;;;;;;10.23;9.30;;;8.70;99.90;;;;;;5050608;28;20583;-50
2022/12/29 01:03:02;;;;;;;10.10;9.20;;;8.60;99.90;;;;;;5051927;28;20594;-51
2022/12/29 01:05:30;;;;;;;10.30;9.23;;;8.70;99.90;;;;;;5051936;28;20219;-51
2022/12/29 01:07:58;;;;;;;10.00;9.07;;;8.70;99.90;;;;;;5052215;28;20244;-51
2022/12/29 01:10:27;;;;;;;10.00;9.07;;;8.70;99.90;;;;;;5052292;28;20220;-50
2022/12/29 01:12:55;;;;;;;10.80;9.80;;;8.80;99.90;;;;;;5051305;28;20684;-51
2022/12/29 01:15:23;;;;;;;10.10;9.10;;;8.70;99.90;;;;;;5052245;28;20224;-51
2022/12/29 01:17:51;;;;;;;10.40;9.40;;;8.80;99.90;;;;;;5052295;28;20204;-51
2022/12/29 01:20:19;;;;;;;9.83;8.93;;;8.80;99.90;;;;;;5052066;28;20236;-50
2022/12/29 01:22:47;;;;;;;11.00;9.90;;;8.80;99.90;;;;;;5050952;28;20702;-48
2022/12/29 01:25:15;;;;;;;10.63;9.60;;;8.80;99.90;;;;;;5050998;28;20236;-50
2022/12/29 01:27:46;;;;;;;10.40;9.33;;;8.80;99.90;;;;;;5048593;28;20254;-49
2022/12/29 01:30:14;;;;;;;10.17;9.37;;;8.80;99.90;;;;;;5051843;28;20220;-51
2022/12/29 01:32:42;;;;;;;11.53;10.43;;;8.80;99.90;;;;;;5051783;28;20231;-51
2022/12/29 01:35:10;;;;;;;10.87;9.87;;;8.80;99.90;;;;;;5054390;28;20606;-51
2022/12/29 01:37:38;;;;;;;11.37;10.37;;;8.80;99.90;;;;;;5055973;28;20222;-51
2022/12/29 01:40:07;;;;;;;12.10;10.40;;;8.80;99.90;;;;;;5054731;28;20223;-50
2022/12/29 01:42:35;;;;;;;12.23;11.03;;;8.80;99.90;;;;;;5055925;28;20587;-48
2022/12/29 01:45:10;;;;;;;12.13;11.03;;;8.90;99.90;;;;;;5056017;28;20219;-50
2022/12/29 01:47:42;;;;;;;12.43;11.33;;;8.90;99.90;;;;;;5054635;28;20687;-51
2022/12/29 01:50:13;;;;;;;12.37;11.27;;;8.90;99.90;;;;;;5054985;28;20248;-51
2022/12/29 01:52:48;;;;;;;12.60;11.40;;;8.90;99.90;;;;;;5055449;28;20676;-50
2022/12/29 01:55:17;;;;;;;13.67;12.37;;;8.90;99.90;;;;;;5054619;28;20270;-50
2022/12/29 01:57:52;;;;;;;13.27;12.07;;;8.90;99.90;;;;;;5055338;28;20280;-51
2022/12/29 02:00:22;;;;;;;13.33;12.13;;;8.90;99.90;;;;;;5055021;28;20231;-50
2022/12/29 02:02:53;;;;;;;13.57;12.37;;;8.90;99.90;;;;;;5054025;28;20673;-52
2022/12/29 02:05:28;;;;;;;13.50;12.27;;;8.90;99.90;;;;;;5055490;28;20231;-50
2022/12/29 02:07:56;;;;;;;14.13;12.83;;;8.90;99.90;;;;;;5055770;28;20691;-51
2022/12/29 02:10:27;;;;;;;13.43;12.23;;;8.90;99.90;;;;;;5054002;28;20236;-51
2022/12/29 02:12:57;;;;;;;13.77;12.47;;;8.90;99.90;;;;;;5054001;28;20270;-51
2022/12/29 02:15:36;;;;;;;13.80;12.50;;;9.00;99.90;;;;;;5055160;28;20231;-51
2022/12/29 02:18:22;;;;;;;13.60;12.30;;;9.00;99.90;;;;;;5055278;28;20226;-52
2022/12/29 02:21:24;;;;;;;13.67;12.47;;;9.00;99.90;;;;;;5055264;28;20236;-49
2022/12/29 02:24:15;;;;;;;13.10;11.90;;;9.00;99.90;;;;;;5053637;28;20223;-51
2022/12/29 02:27:15;;;;;;;12.60;11.50;;;9.00;99.90;;;;;;5054584;28;20282;-50
2022/12/29 02:30:06;;;;;;;12.10;11.00;;;9.10;99.90;;;;;;5054793;28;20215;-51
2022/12/29 02:32:44;;;;;;;12.87;11.77;;;9.10;99.90;;;;;;5048151;28;20236;-48
2022/12/29 02:35:26;;;;;;;13.07;11.77;;;9.10;99.90;;;;;;5053423;28;20307;-51
2022/12/29 02:38:04;;;;;;;13.03;11.83;;;9.10;99.90;;;;;;5053743;28;20248;-50
2022/12/29 02:40:39;;;;;;;12.47;11.37;;;9.10;99.90;;;;;;5053586;28;20228;-51
2022/12/29 02:43:19;;;;;;;13.17;12.00;;;9.20;99.90;;;;;;5055016;28;20583;-50
2022/12/29 02:45:54;;;;;;;12.43;11.37;;;9.20;99.90;;;;;;5051932;28;20692;-50
2022/12/29 02:48:29;;;;;;;12.47;11.20;;;9.20;99.90;;;;;;5054835;28;20261;-51
2022/12/29 02:51:02;;;;;;;12.07;10.97;;;9.20;99.90;;;;;;5053564;28;20278;-51
2022/12/29 02:56:19;;;;;;;12.83;11.53;;;9.20;99.90;;;;;;5054511;28;20232;-50
2022/12/29 02:58:47;;;;;;;12.47;11.13;;;9.30;99.90;;;;;;5041834;28;20258;-51
2022/12/29 03:01:38;;;;;;;12.17;11.17;;;9.30;99.90;;;;;;5052876;28;20651;-51
2022/12/29 03:04:30;;;;;;;12.00;10.90;;;9.30;99.90;;;;;;5051133;28;20228;-52
2022/12/29 03:07:11;;;;;;;11.80;10.73;;;9.30;99.90;;;;;;5053325;28;20224;-51
2022/12/29 03:09:50;;;;;;;11.57;10.57;;;9.40;99.90;;;;;;5054148;28;20270;-49
2022/12/29 03:18:16;;;;;;;11.27;10.17;;;9.40;99.90;;;;;;5054676;28;20220;-51
2022/12/29 03:20:53;;;;;;;10.60;9.60;;;9.40;99.90;;;;;;5053921;28;20345;-51
2022/12/29 03:23:24;;;;;;;11.00;10.10;;;9.40;99.90;;;;;;5053112;28;20567;-51
2022/12/29 03:25:58;;;;;;;11.27;10.27;;;9.40;99.90;;;;;;5053709;28;20700;-51
2022/12/29 03:28:31;;;;;;;10.90;9.90;;;9.40;99.90;;;;;;5041285;28;20274;-52
2022/12/29 03:31:00;;;;;;;10.00;9.20;;;9.40;99.90;;;;;;5053686;28;20278;-50
2022/12/29 03:33:30;;;;;;;10.70;9.73;;;9.40;99.90;;;;;;5051945;28;20231;-49
2022/12/29 03:36:06;;;;;;;10.10;9.27;;;9.50;99.90;;;;;;5053739;28;20242;-51
2022/12/29 03:38:40;;;;;;;9.97;9.17;;;9.50;99.90;;;;;;5052361;28;20231;-52
2022/12/29 03:41:12;;;;;;;10.43;9.63;;;9.50;99.90;;;;;;5052582;28;20269;-50
2022/12/29 03:43:40;;;;;;;9.67;8.87;;;9.50;99.90;;;;;;5052255;28;20229;-51
2022/12/29 03:46:08;;;;;;;9.47;8.67;;;9.50;99.90;;;;;;5054062;28;20704;-50
2022/12/29 03:48:39;;;;;;;10.10;9.30;;;9.50;99.90;;;;;;5051020;28;20302;-49
2022/12/29 03:51:08;;;;;;;9.90;9.00;;;9.60;99.90;;;;;;5052244;28;20232;-50
2022/12/29 03:53:37;;;;;;;9.57;8.87;;;9.60;99.90;;;;;;5052176;28;20231;-50
2022/12/29 03:56:05;;;;;;;9.43;8.73;;;9.60;99.90;;;;;;5053372;28;20234;-50
2022/12/29 03:58:34;;;;;;;9.60;8.80;;;9.60;99.90;;;;;;5043229;28;20216;-52
2022/12/29 04:01:08;;;;;;;9.97;8.63;;;9.60;99.90;;;;;;5051617;28;20239;-51
2022/12/29 04:03:38;;;;;;;9.47;8.70;;;9.60;99.90;;;;;;5051392;28;20630;-49
2022/12/29 04:06:09;;;;;;;8.63;7.93;;;9.60;99.90;;;;;;5053638;28;20236;-51
2022/12/29 04:08:50;;;;;;;8.53;7.83;;;9.60;99.90;;;;;;5051933;28;20240;-52
2022/12/29 04:11:18;;;;;;;8.37;7.73;;;9.60;99.90;;;;;;5051840;28;20228;-51
2022/12/29 04:13:46;;;;;;;7.53;6.93;;;9.60;99.90;;;;;;5051611;28;20326;-48
2022/12/29 04:16:18;;;;;;;7.27;6.77;;;9.60;99.90;;;;;;5051915;28;20238;-50
2022/12/29 04:18:47;;;;;;;7.57;6.97;;;9.60;99.90;;;;;;5043291;28;20272;-50
2022/12/29 04:21:17;;;;;;;7.03;6.47;;;9.60;99.90;;;;;;5051676;28;20230;-50
2022/12/29 04:23:45;;;;;;;6.23;5.73;;;9.60;99.90;;;;;;5052423;28;20228;-48
2022/12/29 04:26:14;;;;;;;5.93;5.43;;;9.70;99.90;;;;;;5051792;28;20727;-49
2022/12/29 04:29:09;;;;;;;6.00;5.50;;;9.70;99.90;;;;;;5051490;28;20232;-48
2022/12/29 04:31:48;;;;;;;5.95;5.55;;;9.70;99.90;;;;;;5049558;28;20520;-52
2022/12/29 04:34:17;;;;;;;5.27;4.90;;;9.70;99.90;;;;;;5046788;28;20225;-50
2022/12/29 04:36:48;;;;;;;4.87;4.57;;;9.80;99.90;;;;;;5031487;28;20283;-51
2022/12/29 04:39:17;;;;;;;5.37;4.97;;;9.80;99.90;;;;;;5031433;28;20278;-51
2022/12/29 04:41:46;;;;;;;4.47;4.10;;;9.80;99.90;;;;;;5031462;28;20229;-47
2022/12/29 04:44:18;;;;;;;4.70;4.40;;;9.80;99.90;;;;;;5031555;28;20731;-51
2022/12/29 04:47:06;;;;;;;4.93;4.53;;;9.80;99.90;;;;;;5033048;28;20233;-51
2022/12/29 04:50:03;;;;;;;4.87;4.57;;;9.70;99.90;;;;;;5038545;28;20243;-50
2022/12/29 04:52:42;;;;;;;4.47;4.17;;;9.80;99.90;;;;;;5052239;28;20230;-50
2022/12/29 04:55:11;;;;;;;4.27;3.97;;;9.80;99.90;;;;;;5051362;28;20231;-48
2022/12/29 04:57:40;;;;;;;4.63;4.23;;;9.80;99.90;;;;;;5043222;28;20307;-49
2022/12/29 05:00:13;;;;;;;4.13;3.83;;;9.80;99.90;;;;;;5047486;28;20282;-48
2022/12/29 05:02:41;;;;;;;4.47;4.07;;;9.80;99.90;;;;;;5050733;28;20222;-50
2022/12/29 05:05:10;;;;;;;4.60;4.20;;;9.80;99.90;;;;;;5039347;28;20232;-49
2022/12/29 05:07:43;;;;;;;4.63;4.23;;;9.80;99.90;;;;;;5031146;28;20233;-48
2022/12/29 05:10:12;;;;;;;4.37;4.07;;;9.80;99.90;;;;;;5033644;28;20236;-51
2022/12/29 05:12:41;;;;;;;4.53;4.13;;;9.80;99.90;;;;;;5036557;28;20235;-48
2022/12/29 05:15:10;;;;;;;4.77;4.37;;;9.80;99.90;;;;;;5035348;28;20221;-51
2022/12/29 05:17:38;;;;;;;5.20;4.70;;;9.80;99.90;;;;;;5040105;28;20228;-49
2022/12/29 05:20:09;;;;;;;4.33;4.03;;;9.90;99.90;;;;;;5055042;28;20243;-50
2022/12/29 05:22:38;;;;;;;5.10;4.70;;;9.90;99.90;;;;;;5055100;28;20228;-50
2022/12/29 05:25:09;;;;;;;5.90;5.40;;;9.90;99.90;;;;;;5054902;28;20308;-51
2022/12/29 05:27:50;;;;;;;5.40;5.00;;;9.90;99.90;;;;;;5046574;28;20763;-50
2022/12/29 05:30:24;;;;;;;5.10;4.80;;;9.90;99.90;;;;;;5054341;28;20262;-53
2022/12/29 05:32:52;;;;;;;5.73;5.30;;;9.90;99.90;;;;;;5054610;28;20224;-52
2022/12/29 05:35:21;;;;;;;5.40;4.97;;;9.90;99.90;;;;;;5054671;28;20315;-47
2022/12/29 05:37:49;;;;;;;6.00;5.10;;;9.90;99.90;;;;;;5054762;28;20780;-51
2022/12/29 05:40:19;;;;;;;5.57;5.17;;;9.90;99.90;;;;;;5054952;28;20306;-51
2022/12/29 05:42:47;;;;;;;5.80;5.40;;;9.90;99.90;;;;;;5054692;28;20232;-49
2022/12/29 05:45:29;;;;;;;6.50;5.40;;;9.90;99.90;;;;;;5054458;28;20315;-50
2022/12/29 05:48:12;;;;;;;6.53;5.93;;;9.90;99.90;;;;;;5054549;28;20232;-51
2022/12/29 05:51:02;;;;;;;5.90;5.43;;;9.90;99.90;;;;;;5054709;28;20228;-48
2022/12/29 05:53:40;;;;;;;5.97;5.47;;;9.80;99.90;;;;;;5054369;28;20238;-51
2022/12/29 05:56:10;;;;;;;6.00;5.50;;;9.90;99.90;;;;;;5055743;28;20221;-51
2022/12/29 05:58:38;;;;;;;6.10;5.60;;;9.90;99.90;;;;;;5045842;28;20248;-47
2022/12/29 06:01:06;;;;;;;6.50;5.27;;;9.90;99.90;;;;;;5053918;28;20232;-52
2022/12/29 06:03:34;;;;;;;4.77;4.47;;;9.90;99.90;;;;;;5053916;28;20239;-49
2022/12/29 06:06:03;;;;;;;5.10;4.70;;;9.90;99.90;;;;;;5054156;28;20285;-51
2022/12/29 06:08:31;;;;;;;5.80;5.30;;;10.00;99.90;;;;;;5054119;28;20238;-52
2022/12/29 06:10:59;;;;;;;4.67;4.27;;;9.90;99.90;;;;;;5055415;28;20216;-50
2022/12/29 06:13:29;;;;;;;4.97;4.50;;;10.00;99.90;;;;;;5055648;28;20238;-51
2022/12/29 06:15:58;;;;;;;5.30;4.80;;;10.00;99.90;;;;;;5053993;28;20580;-51
2022/12/29 06:18:27;;;;;;;4.60;4.20;;;10.00;99.90;;;;;;5053977;28;20216;-50
2022/12/29 06:21:00;;;;;;;4.50;4.10;;;9.90;99.90;;;;;;5053702;28;20282;-50
2022/12/29 06:23:29;;;;;;;4.73;4.33;;;9.90;99.90;;;;;;5054084;28;20232;-49
2022/12/29 06:25:57;;;;;;;4.40;4.00;;;10.00;99.90;;;;;;5053943;28;20242;-51
2022/12/29 06:28:25;;;;;;;4.27;3.87;;;9.90;99.90;;;;;;5054780;28;20295;-52
2022/12/29 06:30:55;;;;;;;4.20;3.80;;;10.00;99.90;;;;;;5054451;28;20650;-51
2022/12/29 06:33:23;;;;;;;4.13;3.73;;;10.00;99.90;;;;;;5048015;28;20244;-50
2022/12/29 06:35:51;;;;;;;4.53;4.10;;;10.00;99.90;;;;;;5050858;28;20220;-50
2022/12/29 06:38:19;;;;;;;4.40;3.97;;;10.00;99.90;;;;;;5055079;28;20222;-51
2022/12/29 06:40:47;;;;;;;4.50;4.10;;;9.90;99.90;;;;;;5053596;28;20217;-50
2022/12/29 06:43:20;;;;;;;4.03;3.23;;;9.90;99.90;;;;;;5055028;28;20228;-49
2022/12/29 06:46:22;;;;;;;4.10;3.50;;;9.90;99.90;;;;;;5031919;28;20232;-51
2022/12/29 06:48:50;;;;;;;3.17;2.90;;;9.80;99.90;;;;;;5054799;28;20249;-50
2022/12/29 06:51:18;;;;;;;2.90;2.50;;;9.80;99.90;;;;;;5054643;28;20224;-51
2022/12/29 06:53:46;;;;;;;2.47;2.27;;;9.80;99.90;;;;;;5055238;28;20238;-47
2022/12/29 06:56:15;;;;;;;3.33;2.20;;;9.80;99.90;;;;;;5054503;28;20442;-51
2022/12/29 06:58:43;;;;;;;2.77;2.10;;;9.80;99.90;;;;;;5054641;28;20227;-51
2022/12/29 07:01:11;;;;;;;2.70;2.50;;;9.80;99.90;;;;;;5053254;28;20235;-48
2022/12/29 07:03:42;;;;;;;4.10;2.80;;;9.70;99.90;;;;;;5053955;28;20220;-52
2022/12/29 07:06:10;;;;;;;5.23;2.63;;;9.70;99.90;;;;;;5053816;28;20224;-51
2022/12/29 07:08:38;;;;;;;2.50;2.30;;;9.70;99.90;;;;;;5054372;28;20224;-50
2022/12/29 07:11:06;;;;;;;4.13;2.53;;;9.70;99.90;;;;;;5054439;28;20275;-50
2022/12/29 07:13:34;;;;;;;3.40;3.00;;;9.80;99.90;;;;;;5054514;28;20236;-51
2022/12/29 07:16:06;;;;;;;4.73;2.80;;;9.80;99.90;;;;;;5054406;28;20220;-51
2022/12/29 07:18:34;;;;;;;4.00;2.73;;;9.80;99.90;;;;;;5053567;28;20224;-50
2022/12/29 07:21:04;;;;;;;2.73;2.43;;;9.80;99.90;;;;;;5054155;28;20235;-49
2022/12/29 07:23:32;;;;;;;2.73;2.47;;;9.80;99.90;;;;;;5051102;28;20220;-51
2022/12/29 07:26:02;;;;;;;3.07;2.50;;;9.70;99.90;;;;;;5053608;28;20315;-51
2022/12/29 07:28:30;;;;;;;4.80;2.60;;;9.70;99.90;;;;;;5053846;28;20227;-51
2022/12/29 07:30:58;;;;;;;4.60;2.87;;;9.70;99.90;;;;;;5053607;28;20726;-50
2022/12/29 07:33:26;;;;;;;2.73;2.40;;;9.70;99.90;;;;;;5052607;28;20225;-50
2022/12/29 07:35:54;;;;;;;4.50;2.47;;;9.70;99.90;;;;;;5053281;28;20231;-51
2022/12/29 07:38:24;;;;;;;3.77;2.53;;;9.70;99.90;;;;;;5052323;28;20675;-51
2022/12/29 07:40:52;;;;;;;2.90;2.13;;;9.70;99.90;;;;;;5053558;28;20715;-49
2022/12/29 07:43:20;;;;;;;2.27;2.07;;;9.70;99.90;;;;;;5053321;28;20227;-51
2022/12/29 07:46:05;;;;;;;3.90;2.23;;;9.70;99.90;;;;;;5052506;28;20224;-51
2022/12/29 07:48:35;;;;;;;2.83;2.00;;;9.60;99.90;;;;;;5053820;28;20250;-50
2022/12/29 07:51:03;;;;;;;6.63;2.57;;;9.60;99.90;;;;;;5053745;28;20561;-51
2022/12/29 07:53:33;;;;;;;4.20;2.50;;;9.70;99.90;;;;;;5053323;28;20252;-51
2022/12/29 07:56:01;;;;;;;3.67;2.47;;;9.70;99.90;;;;;;5053612;28;20289;-49
2022/12/29 07:58:29;;;;;;;3.57;2.40;;;9.70;99.90;;;;;;5053077;28;20227;-51
2022/12/29 08:00:57;;;;;;;4.73;2.70;;;9.70;99.90;;;;;;5052789;28;20231;-51
2022/12/29 08:03:26;;;;;;;3.67;2.70;;;9.70;99.90;;;;;;5053120;28;20231;-52
2022/12/29 08:05:54;;;;;;;4.60;2.67;;;9.70;99.90;;;;;;5053237;28;20238;-50
2022/12/29 08:08:22;;;;;;;2.63;2.37;;;9.70;99.90;;;;;;5053686;28;20239;-51
2022/12/29 08:10:51;;;;;;;2.87;2.10;;;9.70;99.90;;;;;;5053409;28;20711;-49
2022/12/29 08:13:19;;;;;;;3.03;2.20;;;9.70;99.90;;;;;;5046326;28;20232;-47
2022/12/29 08:15:47;;;;;;;3.07;2.10;;;9.80;99.90;;;;;;5033341;28;20244;-51
2022/12/29 08:18:15;;;;;;;3.27;2.00;;;9.80;99.90;;;;;;5033637;28;20228;-51
2022/12/29 08:20:43;;;;;;;2.97;1.93;;;9.90;99.90;;;;;;5032965;28;20243;-48
2022/12/29 08:23:11;;;;;;;4.27;1.73;;;9.90;99.90;;;;;;5033054;28;20615;-48
2022/12/29 08:25:39;;;;;;;3.07;1.87;;;9.90;99.90;;;;;;5048356;28;20220;-52
2022/12/29 08:28:09;;;;;;;3.77;1.53;;;9.90;99.90;;;;;;5053093;28;20232;-50
2022/12/29 08:30:37;;;;;;;4.47;1.60;;;9.90;99.90;;;;;;5052134;28;20227;-51
2022/12/29 08:33:05;;;;;;;2.83;1.90;;;9.90;99.90;;;;;;5052204;28;20224;-50
2022/12/29 08:35:33;;;;;;;2.13;1.70;;;10.00;99.90;;;;;;5038562;28;20596;-52
2022/12/29 08:38:01;;;;;;;2.70;1.80;;;10.00;99.90;;;;;;5033192;28;20227;-50
2022/12/29 08:40:29;;;;;;;2.70;1.70;;;10.00;99.90;;;;;;5032760;28;20584;-51
2022/12/29 08:42:57;;;;;;;2.40;1.80;;;10.00;99.90;;;;;;5033100;28;20228;-50
2022/12/29 08:45:27;;;;;;;3.60;1.60;;;10.00;99.90;;;;;;5033074;28;20230;-49
2022/12/29 08:47:55;;;;;;;3.13;1.80;;;10.00;99.90;;;;;;5033103;28;20224;-50
2022/12/29 08:50:23;;;;;;;3.30;2.20;;;10.10;99.90;;;;;;5032537;28;20561;-50
2022/12/29 08:52:51;;;;;;;3.37;2.00;;;10.10;99.90;;;;;;5032418;28;20248;-51
2022/12/29 08:55:19;;;;;;;3.60;2.00;;;10.10;99.90;;;;;;5033001;28;20233;-49
2022/12/29 08:57:47;;;;;;;2.17;1.50;;;10.20;99.90;;;;;;5031669;28;20256;-51
2022/12/29 09:00:20;;;;;;;3.47;1.50;;;10.10;99.90;;;;;;5050048;28;20329;-47
2022/12/29 09:02:50;;;;;;;6.03;1.77;;;10.20;99.90;;;;;;5050656;28;20228;-51
2022/12/29 09:05:18;;;;;;;4.70;1.40;;;10.20;99.90;;;;;;5052587;28;20695;-50
2022/12/29 09:07:46;;;;;;;3.57;1.40;;;10.20;99.90;;;;;;5052500;28;20232;-52
2022/12/29 09:10:14;;;;;;;2.93;1.40;;;10.20;99.90;;;;;;5036395;28;20220;-51
2022/12/29 09:12:42;;;;;;;2.93;1.50;;;10.30;99.90;;;;;;5032616;28;20221;-51
2022/12/29 09:15:11;;;;;;;3.07;1.30;;;10.30;99.90;;;;;;5034633;28;20236;-50
2022/12/29 09:17:43;;;;;;;4.07;1.40;;;10.30;99.90;;;;;;5052239;28;20236;-50
2022/12/29 09:20:14;;;;;;;4.93;1.70;;;10.30;99.90;;;;;;5052347;28;20254;-49
2022/12/29 09:22:42;;;;;;;4.40;1.60;;;10.30;99.90;;;;;;5051623;28;20247;-48
2022/12/29 09:25:11;;;;;;;4.43;1.20;;;10.30;99.90;;;;;;5044248;28;20719;-50
2022/12/29 09:27:39;;;;;;;3.53;1.27;;;10.30;99.90;;;;;;5051891;28;20277;-51
2022/12/29 09:30:10;;;;;;;5.10;1.53;;;10.30;99.90;;;;;;5052444;28;20596;-52
2022/12/29 09:32:38;;;;;;;8.57;1.90;;;10.30;99.90;;;;;;5050589;28;20238;-50
2022/12/29 09:35:13;;;;;;;4.63;1.63;;;10.30;99.90;;;;;;5044381;28;20228;-50
2022/12/29 09:37:41;;;;;;;4.60;1.70;;;10.30;99.90;;;;;;5051175;28;20619;-51
2022/12/29 09:40:30;;;;;;;5.40;1.83;;;10.30;99.90;;;;;;5044189;28;20228;-50
2022/12/29 09:43:34;;;;;;;5.30;1.97;;;10.30;99.90;;;;;;5052061;28;20290;-51
2022/12/29 09:46:14;;;;;;;6.90;1.67;;;10.20;99.90;;;;;;5048556;28;20220;-51
2022/12/29 09:48:48;;;;;;;8.00;2.30;;;10.20;99.90;;;;;;5049424;28;20311;-50
2022/12/29 09:51:23;;;;;;;4.23;1.90;;;10.20;99.90;;;;;;5052088;28;20235;-50
2022/12/29 09:53:56;;;;;;;5.67;1.80;;;10.20;99.90;;;;;;5052591;28;20229;-51
2022/12/29 09:56:27;;;;;;;6.33;2.13;;;10.20;99.90;;;;;;5054791;28;20216;-50
2022/12/29 09:59:00;;;;;;;3.40;2.10;;;10.20;99.90;;;;;;5049691;28;20229;-51
2022/12/29 10:01:32;;;;;;;4.67;1.80;;;10.20;99.90;;;;;;5055085;28;20243;-50
2022/12/29 10:04:04;;;;;;;6.83;1.73;;;10.20;99.90;;;;;;5055446;28;20259;-51
2022/12/29 10:06:40;;;;;;;7.37;1.87;;;10.20;99.90;;;;;;5056033;28;20292;-52
2022/12/29 10:09:34;;;;;;;4.87;1.97;;;10.20;99.90;;;;;;5055173;28;20225;-49
2022/12/29 10:12:18;;;;;;;8.67;2.27;;;10.20;99.90;;;;;;5055819;28;20250;-50
2022/12/29 10:14:58;;;;;;;7.37;1.67;;;10.30;99.90;;;;;;5055584;28;20223;-51
2022/12/29 10:17:33;;;;;;;3.83;1.73;;;10.20;99.90;;;;;;5055607;28;20228;-52
2022/12/29 10:20:26;;;;;;;5.67;1.60;;;10.20;99.90;;;;;;5035136;28;20339;-49
2022/12/29 10:23:22;;;;;;;5.13;1.47;;;10.20;99.90;;;;;;5051311;28;20216;-48
2022/12/29 10:25:54;;;;;;;3.47;1.40;;;10.20;99.90;;;;;;5055187;28;20227;-50
2022/12/29 10:28:25;;;;;;;6.93;1.47;;;10.20;99.90;;;;;;5054534;28;20220;-51
2022/12/29 10:30:55;;;;;;;5.33;1.70;;;10.20;99.90;;;;;;5054140;28;20230;-48
2022/12/29 10:33:26;;;;;;;9.27;2.07;;;10.20;99.90;;;;;;5054841;28;20224;-51
2022/12/29 10:35:54;;;;;;;9.07;1.50;;;10.30;99.90;;;;;;5052064;28;20318;-47
2022/12/29 10:38:30;;;;;;;9.07;2.13;;;10.30;99.90;;;;;;5056203;28;20236;-51
2022/12/29 10:41:01;;;;;;;5.70;1.60;;;10.40;99.90;;;;;;5065907;28;20232;-52
2022/12/29 10:43:32;;;;;;;3.33;1.57;;;10.40;99.90;;;;;;5063472;28;20241;-51
2022/12/29 10:46:03;;;;;;;5.97;1.50;;;10.60;99.90;;;;;;5063447;28;20316;-53
2022/12/29 10:48:34;;;;;;;6.27;1.63;;;10.60;99.90;;;;;;5058472;28;20561;-51
2022/12/29 10:51:05;;;;;;;6.63;1.80;;;10.50;99.90;;;;;;5064852;28;20254;-51
2022/12/29 10:53:40;;;;;;;4.40;1.80;;;10.50;99.90;;;;;;5063849;28;20220;-51
2022/12/29 10:56:21;;;;;;;3.47;1.50;;;10.50;99.90;;;;;;5062025;28;20234;-51
2022/12/29 10:58:50;;;;;;;7.87;1.87;;;10.60;99.90;;;;;;5063353;28;20224;-51
2022/12/29 11:01:20;;;;;;;4.47;1.30;;;10.50;99.90;;;;;;5062704;28;20623;-49
2022/12/29 11:04:04;;;;;;;3.83;1.30;;;10.40;99.90;;;;;;5063118;28;20232;-52
2022/12/29 11:06:33;;;;;;;7.10;1.50;;;10.40;99.90;;;;;;5062729;28;20224;-51
2022/12/29 11:09:13;;;;;;;5.40;1.20;;;10.50;99.90;;;;;;5066895;28;20714;-48
2022/12/29 11:11:42;;;;;;;4.43;1.00;;;10.50;99.90;;;;;;5065997;28;20222;-52
2022/12/29 11:14:14;;;;;;;4.80;1.37;;;10.50;99.90;;;;;;5067135;28;20224;-51
2022/12/29 11:16:44;;;;;;;4.93;1.40;;;10.50;99.90;;;;;;5068160;28;20933;-49
2022/12/29 11:19:23;;;;;;;6.57;1.53;;;10.50;99.90;;;;;;5065744;28;20242;-50
2022/12/29 11:21:52;;;;;;;5.53;1.30;;;10.60;99.90;;;;;;5067830;28;20224;-50
2022/12/29 11:24:24;;;;;;;4.20;1.23;;;10.70;99.90;;;;;;5068615;28;20228;-50
2022/12/29 11:26:57;;;;;;;3.47;1.07;;;10.70;99.90;;;;;;5066750;28;20291;-53
2022/12/29 11:29:29;;;;;;;5.97;1.20;;;10.50;99.90;;;;;;5066596;28;20274;-49
2022/12/29 11:31:58;;;;;;;5.57;1.50;;;10.40;99.90;;;;;;5066265;28;20580;-50
2022/12/29 11:34:32;;;;;;;5.57;1.10;;;10.40;99.90;;;;;;5065259;28;20281;-50
2022/12/29 11:37:04;;;;;;;2.00;0.97;;;10.40;99.90;;;;;;5061099;28;20224;-52
2022/12/29 11:39:39;;;;;;;4.80;1.13;;;10.40;99.90;;;;;;5060984;28;20247;-51
2022/12/29 11:42:13;;;;;;;5.00;1.17;;;10.50;99.90;;;;;;5061863;28;20324;-49
2022/12/29 11:44:45;;;;;;;4.53;1.10;;;10.50;99.90;;;;;;5061540;28;20231;-51
2022/12/29 11:47:22;;;;;;;4.70;0.73;;;10.40;99.90;;;;;;5061773;28;20722;-47
2022/12/29 11:49:53;;;;;;;5.13;1.07;;;10.50;99.90;;;;;;5064155;28;20257;-50
2022/12/29 11:52:29;;;;;;;4.07;1.10;;;10.40;99.90;;;;;;5063835;28;20254;-50
2022/12/29 11:54:59;;;;;;;6.03;1.03;;;10.30;99.90;;;;;;5062012;28;20650;-49
2022/12/29 11:57:28;;;;;;;3.63;0.90;;;10.20;99.90;;;;;;5063839;28;20243;-46
2022/12/29 11:59:58;;;;;;;5.50;1.23;;;10.20;99.90;;;;;;5066403;28;20710;-47
2022/12/29 12:02:43;;;;;;;5.83;1.30;;;10.20;99.90;;;;;;5061359;28;20227;-50
2022/12/29 12:05:18;;;;;;;4.03;1.57;;;10.00;99.90;;;;;;5063467;28;20223;-51
2022/12/29 12:07:48;;;;;;;5.67;1.27;;;10.00;99.90;;;;;;5061425;28;20230;-51
2022/12/29 12:10:24;;;;;;;4.43;1.20;;;9.90;99.90;;;;;;5063449;28;20224;-52
2022/12/29 12:12:59;;;;;;;5.47;1.23;;;9.90;99.90;;;;;;5059060;28;20230;-49
2022/12/29 12:15:37;;;;;;;3.13;1.00;;;9.80;99.90;;;;;;5063879;28;20224;-51
2022/12/29 12:18:17;;;;;;;5.27;1.43;;;9.80;99.90;;;;;;5062974;28;20655;-51
2022/12/29 12:20:50;;;;;;;3.77;1.30;;;9.80;99.90;;;;;;5064952;28;20247;-51
2022/12/29 12:23:36;;;;;;;4.53;1.40;;;9.80;99.90;;;;;;5063539;28;20231;-48
2022/12/29 12:26:13;;;;;;;3.50;1.40;;;9.80;99.90;;;;;;5060106;28;20236;-50
2022/12/29 12:28:49;;;;;;;6.57;1.67;;;9.80;99.90;;;;;;5066045;28;20226;-51
2022/12/29 12:31:27;;;;;;;4.67;1.60;;;9.80;99.90;;;;;;5061341;28;20248;-47
2022/12/29 12:34:02;;;;;;;5.57;1.87;;;9.80;99.90;;;;;;5063053;28;20238;-50
2022/12/29 12:36:53;;;;;;;8.33;2.03;;;9.90;99.90;;;;;;5064957;28;20741;-50
2022/12/29 12:39:28;;;;;;;6.53;1.77;;;9.80;99.90;;;;;;5065300;28;20247;-49
2022/12/29 12:42:14;;;;;;;4.80;1.50;;;9.80;99.90;;;;;;5062217;28;20224;-50
2022/12/29 12:44:52;;;;;;;5.83;1.30;;;9.80;99.90;;;;;;5062720;28;20231;-51
2022/12/29 12:47:48;;;;;;;6.47;1.30;;;9.80;99.90;;;;;;5062454;28;20219;-51
2022/12/29 12:50:38;;;;;;;4.80;1.53;;;9.70;99.90;;;;;;5066014;28;20239;-51
2022/12/29 12:53:26;;;;;;;6.60;1.50;;;9.80;99.90;;;;;;5061003;28;20831;-51
2022/12/29 12:56:08;;;;;;;5.00;1.50;;;9.90;99.90;;;;;;5064777;28;20229;-50
2022/12/29 12:58:50;;;;;;;5.20;1.30;;;9.80;99.90;;;;;;5062017;28;20228;-51
2022/12/29 13:01:28;;;;;;;5.17;1.30;;;9.80;99.90;;;;;;5058906;28;20231;-49
2022/12/29 13:04:20;;;;;;;6.53;1.70;;;9.80;99.90;;;;;;5064285;28;20277;-50
2022/12/29 13:06:55;;;;;;;5.17;1.40;;;9.80;99.90;;;;;;5065384;28;20671;-50
2022/12/29 13:09:40;;;;;;;6.43;1.70;;;9.80;99.90;;;;;;5064273;28;21140;-50
2022/12/29 13:12:21;;;;;;;7.03;1.47;;;9.80;99.90;;;;;;5065671;28;21645;-51
2022/12/29 13:15:03;;;;;;;6.70;1.50;;;9.70;99.90;;;;;;5066495;28;20687;-51
2022/12/29 13:17:38;;;;;;;6.87;2.00;;;9.70;99.90;;;;;;5065024;28;20246;-50
2022/12/29 13:20:19;;;;;;;8.77;1.83;;;9.60;99.90;;;;;;5065864;28;20247;-48
2022/12/29 13:22:53;;;;;;;5.07;1.93;;;9.60;99.90;;;;;;5065577;28;20236;-51
2022/12/29 13:25:29;;;;;;;7.07;1.90;;;9.60;99.90;;;;;;5063713;28;20232;-52
2022/12/29 13:28:06;;;;;;;6.10;1.60;;;9.50;99.90;;;;;;5064526;28;20268;-50
2022/12/29 13:30:42;;;;;;;6.50;1.40;;;9.50;99.90;;;;;;5061683;28;20310;-53
2022/12/29 13:33:21;;;;;;;4.00;0.77;;;9.30;99.90;;;;;;5067619;28;20232;-51
2022/12/29 13:36:01;;;;;;;3.00;0.90;;;9.10;99.90;;;;;;5064978;28;20611;-51
2022/12/29 13:38:35;;;;;;;4.10;0.90;;;8.90;99.90;;;;;;5060665;28;20231;-49
2022/12/29 13:41:08;;;;;;;4.13;0.80;;;8.80;99.90;;;;;;5061081;28;20222;-51
2022/12/29 13:43:40;;;;;;;3.30;1.20;;;8.70;99.90;;;;;;5065052;28;20705;-51
2022/12/29 13:46:14;;;;;;;4.70;0.90;;;8.70;99.90;;;;;;5063012;28;20318;-52
2022/12/29 13:48:47;;;;;;;2.00;0.87;;;8.60;99.90;;;;;;5068185;28;20219;-49
2022/12/29 13:51:16;;;;;;;2.87;1.00;;;8.60;99.90;;;;;;5066155;28;20302;-51
2022/12/29 13:54:11;;;;;;;5.53;0.90;;;8.60;99.90;;;;;;5066345;28;20227;-49